Terminal Aerodrome Forecast
Issued by NWS Charleston, WV

Current Version | Previous Version | Graphics & Text | Print | Product List | Glossary On
Versions: 1 2 3 4 5 6 7 8 9 10 11 12 13 14 15 16 17 18 19 20 21 22 23 24 25 26 27 28 29 30 31
189
FTUS41 KRLX 270543 RRA
TAFCRW
TAF
KCRW 270543Z 2706/2806 00000KT 1/4SM FG VV001
     FM271100 00000KT 1SM BR BKN001
     FM271200 00000KT 3SM BR BKN005
     FM271300 00000KT 4SM BR BKN010
     FM271400 00000KT P6SM BKN040=

USA.gov is the U.S. government's official web portal to all federal, state and local government web resources and services.